sensor_id;sensor_type;location;lat;lon;timestamp;P1;durP1;ratioP1;P2;durP2;ratioP2
72895;SDS011;61036;53.224;6.554;2022-07-17T00:02:19;8.20;;;3.07;;
72895;SDS011;61036;53.224;6.554;2022-07-17T00:04:45;6.07;;;3.13;;
72895;SDS011;61036;53.224;6.554;2022-07-17T00:07:11;7.53;;;3.10;;
72895;SDS011;61036;53.224;6.554;2022-07-17T00:09:36;5.47;;;2.97;;
72895;SDS011;61036;53.224;6.554;2022-07-17T00:12:02;5.87;;;2.87;;
72895;SDS011;61036;53.224;6.554;2022-07-17T00:14:28;7.30;;;2.80;;
72895;SDS011;61036;53.224;6.554;2022-07-17T00:16:54;8.60;;;2.83;;
72895;SDS011;61036;53.224;6.554;2022-07-17T00:19:23;7.13;;;3.00;;
72895;SDS011;61036;53.224;6.554;2022-07-17T00:21:51;6.50;;;3.00;;
72895;SDS011;61036;53.224;6.554;2022-07-17T00:24:17;8.40;;;3.13;;
72895;SDS011;61036;53.224;6.554;2022-07-17T00:26:49;6.83;;;3.03;;
72895;SDS011;61036;53.224;6.554;2022-07-17T00:29:16;7.90;;;3.33;;
72895;SDS011;61036;53.224;6.554;2022-07-17T00:31:43;6.63;;;3.30;;
72895;SDS011;61036;53.224;6.554;2022-07-17T00:34:11;7.83;;;3.50;;
72895;SDS011;61036;53.224;6.554;2022-07-17T00:36:37;7.07;;;4.13;;
72895;SDS011;61036;53.224;6.554;2022-07-17T00:39:03;9.23;;;3.80;;
72895;SDS011;61036;53.224;6.554;2022-07-17T00:41:29;7.30;;;3.83;;
72895;SDS011;61036;53.224;6.554;2022-07-17T00:44:02;6.80;;;3.70;;
72895;SDS011;61036;53.224;6.554;2022-07-17T00:46:37;8.00;;;3.43;;
72895;SDS011;61036;53.224;6.554;2022-07-17T00:49:04;8.67;;;4.60;;
72895;SDS011;61036;53.224;6.554;2022-07-17T00:51:32;8.07;;;4.07;;
72895;SDS011;61036;53.224;6.554;2022-07-17T00:53:59;8.40;;;3.73;;
72895;SDS011;61036;53.224;6.554;2022-07-17T00:56:27;7.93;;;3.70;;
72895;SDS011;61036;53.224;6.554;2022-07-17T00:58:53;9.00;;;3.43;;
72895;SDS011;61036;53.224;6.554;2022-07-17T01:01:24;7.03;;;3.10;;
72895;SDS011;61036;53.224;6.554;2022-07-17T01:04:05;8.37;;;3.20;;
72895;SDS011;61036;53.224;6.554;2022-07-17T01:06:33;7.70;;;3.70;;
72895;SDS011;61036;53.224;6.554;2022-07-17T01:08:59;8.73;;;3.63;;
72895;SDS011;61036;53.224;6.554;2022-07-17T01:11:25;7.87;;;4.17;;
72895;SDS011;61036;53.224;6.554;2022-07-17T01:13:51;6.97;;;3.83;;
72895;SDS011;61036;53.224;6.554;2022-07-17T01:16:17;8.63;;;4.27;;
72895;SDS011;61036;53.224;6.554;2022-07-17T01:18:44;10.07;;;4.30;;
72895;SDS011;61036;53.224;6.554;2022-07-17T01:21:12;8.03;;;3.70;;
72895;SDS011;61036;53.224;6.554;2022-07-17T01:23:40;7.37;;;3.83;;
72895;SDS011;61036;53.224;6.554;2022-07-17T01:26:09;7.67;;;3.40;;
72895;SDS011;61036;53.224;6.554;2022-07-17T01:28:35;6.60;;;3.97;;
72895;SDS011;61036;53.224;6.554;2022-07-17T01:31:02;8.07;;;3.90;;
72895;SDS011;61036;53.224;6.554;2022-07-17T01:33:28;7.40;;;3.83;;
72895;SDS011;61036;53.224;6.554;2022-07-17T01:35:54;8.10;;;3.97;;
72895;SDS011;61036;53.224;6.554;2022-07-17T01:38:21;11.33;;;4.53;;
72895;SDS011;61036;53.224;6.554;2022-07-17T01:40:47;6.33;;;3.53;;
72895;SDS011;61036;53.224;6.554;2022-07-17T01:43:16;8.50;;;4.17;;
72895;SDS011;61036;53.224;6.554;2022-07-17T01:45:42;8.10;;;4.27;;
72895;SDS011;61036;53.224;6.554;2022-07-17T01:48:07;7.10;;;3.60;;
72895;SDS011;61036;53.224;6.554;2022-07-17T01:50:34;7.73;;;3.87;;
72895;SDS011;61036;53.224;6.554;2022-07-17T01:53:00;7.83;;;4.23;;
72895;SDS011;61036;53.224;6.554;2022-07-17T01:55:26;7.33;;;3.83;;
72895;SDS011;61036;53.224;6.554;2022-07-17T01:57:52;6.80;;;4.10;;
72895;SDS011;61036;53.224;6.554;2022-07-17T02:00:21;7.17;;;4.50;;
72895;SDS011;61036;53.224;6.554;2022-07-17T02:02:49;7.20;;;4.03;;
72895;SDS011;61036;53.224;6.554;2022-07-17T02:05:15;9.53;;;4.30;;
72895;SDS011;61036;53.224;6.554;2022-07-17T02:07:41;7.53;;;4.37;;
72895;SDS011;61036;53.224;6.554;2022-07-17T02:10:08;9.27;;;4.67;;
72895;SDS011;61036;53.224;6.554;2022-07-17T02:12:34;9.03;;;4.40;;
72895;SDS011;61036;53.224;6.554;2022-07-17T02:15:01;8.80;;;4.90;;
72895;SDS011;61036;53.224;6.554;2022-07-17T02:17:27;9.47;;;4.07;;
72895;SDS011;61036;53.224;6.554;2022-07-17T02:19:54;6.83;;;4.37;;
72895;SDS011;61036;53.224;6.554;2022-07-17T02:22:20;8.33;;;4.47;;
72895;SDS011;61036;53.224;6.554;2022-07-17T02:24:46;8.80;;;4.70;;
72895;SDS011;61036;53.224;6.554;2022-07-17T02:27:11;7.90;;;4.50;;
72895;SDS011;61036;53.224;6.554;2022-07-17T02:29:37;7.07;;;4.60;;
72895;SDS011;61036;53.224;6.554;2022-07-17T02:32:03;8.63;;;4.87;;
72895;SDS011;61036;53.224;6.554;2022-07-17T02:34:31;7.63;;;4.13;;
72895;SDS011;61036;53.224;6.554;2022-07-17T02:36:57;8.30;;;4.70;;
72895;SDS011;61036;53.224;6.554;2022-07-17T02:39:23;6.53;;;4.40;;
72895;SDS011;61036;53.224;6.554;2022-07-17T02:41:49;8.17;;;4.30;;
72895;SDS011;61036;53.224;6.554;2022-07-17T02:44:15;8.77;;;4.73;;
72895;SDS011;61036;53.224;6.554;2022-07-17T02:46:40;9.50;;;4.90;;
72895;SDS011;61036;53.224;6.554;2022-07-17T02:49:06;8.87;;;4.50;;
72895;SDS011;61036;53.224;6.554;2022-07-17T02:51:31;10.80;;;4.63;;
72895;SDS011;61036;53.224;6.554;2022-07-17T02:53:57;13.03;;;4.60;;
72895;SDS011;61036;53.224;6.554;2022-07-17T02:56:26;7.17;;;4.57;;
72895;SDS011;61036;53.224;6.554;2022-07-17T02:58:52;9.40;;;4.70;;
72895;SDS011;61036;53.224;6.554;2022-07-17T03:01:18;7.70;;;4.60;;
72895;SDS011;61036;53.224;6.554;2022-07-17T03:03:44;8.73;;;4.83;;
72895;SDS011;61036;53.224;6.554;2022-07-17T03:06:11;7.50;;;4.03;;
72895;SDS011;61036;53.224;6.554;2022-07-17T03:08:37;8.30;;;4.03;;
72895;SDS011;61036;53.224;6.554;2022-07-17T03:11:03;9.27;;;4.30;;
72895;SDS011;61036;53.224;6.554;2022-07-17T03:13:29;9.90;;;4.57;;
72895;SDS011;61036;53.224;6.554;2022-07-17T03:15:57;8.30;;;3.77;;
72895;SDS011;61036;53.224;6.554;2022-07-17T03:18:24;7.33;;;3.93;;
72895;SDS011;61036;53.224;6.554;2022-07-17T03:20:50;9.03;;;3.70;;
72895;SDS011;61036;53.224;6.554;2022-07-17T03:23:18;8.03;;;4.23;;
72895;SDS011;61036;53.224;6.554;2022-07-17T03:25:44;8.13;;;4.17;;
72895;SDS011;61036;53.224;6.554;2022-07-17T03:28:09;8.27;;;3.93;;
72895;SDS011;61036;53.224;6.554;2022-07-17T03:30:35;7.63;;;4.20;;
72895;SDS011;61036;53.224;6.554;2022-07-17T03:33:03;11.77;;;4.13;;
72895;SDS011;61036;53.224;6.554;2022-07-17T03:35:29;8.37;;;3.87;;
72895;SDS011;61036;53.224;6.554;2022-07-17T03:37:56;8.47;;;4.07;;
72895;SDS011;61036;53.224;6.554;2022-07-17T03:40:22;6.40;;;3.53;;
72895;SDS011;61036;53.224;6.554;2022-07-17T03:42:48;7.93;;;4.07;;
72895;SDS011;61036;53.224;6.554;2022-07-17T03:45:15;7.47;;;3.87;;
72895;SDS011;61036;53.224;6.554;2022-07-17T03:47:41;7.23;;;3.63;;
72895;SDS011;61036;53.224;6.554;2022-07-17T03:50:07;7.73;;;3.70;;
72895;SDS011;61036;53.224;6.554;2022-07-17T03:52:33;7.03;;;3.70;;
72895;SDS011;61036;53.224;6.554;2022-07-17T03:54:59;6.40;;;3.90;;
72895;SDS011;61036;53.224;6.554;2022-07-17T03:57:25;6.30;;;3.83;;
72895;SDS011;61036;53.224;6.554;2022-07-17T03:59:52;7.13;;;3.60;;
72895;SDS011;61036;53.224;6.554;2022-07-17T04:02:18;7.70;;;3.93;;
72895;SDS011;61036;53.224;6.554;2022-07-17T04:04:45;8.60;;;4.17;;
72895;SDS011;61036;53.224;6.554;2022-07-17T04:07:11;11.37;;;4.30;;
72895;SDS011;61036;53.224;6.554;2022-07-17T04:09:53;7.27;;;4.13;;
72895;SDS011;61036;53.224;6.554;2022-07-17T04:12:24;8.27;;;4.17;;
72895;SDS011;61036;53.224;6.554;2022-07-17T04:14:51;9.53;;;4.10;;
72895;SDS011;61036;53.224;6.554;2022-07-17T04:17:16;8.67;;;4.30;;
72895;SDS011;61036;53.224;6.554;2022-07-17T04:19:42;8.67;;;3.70;;
72895;SDS011;61036;53.224;6.554;2022-07-17T04:22:08;6.80;;;3.53;;
72895;SDS011;61036;53.224;6.554;2022-07-17T04:24:34;10.17;;;4.13;;
72895;SDS011;61036;53.224;6.554;2022-07-17T04:27:03;9.50;;;4.03;;
72895;SDS011;61036;53.224;6.554;2022-07-17T04:29:28;7.50;;;3.83;;
72895;SDS011;61036;53.224;6.554;2022-07-17T04:31:54;8.37;;;3.53;;
72895;SDS011;61036;53.224;6.554;2022-07-17T04:34:20;9.53;;;3.90;;
72895;SDS011;61036;53.224;6.554;2022-07-17T04:36:45;8.50;;;3.87;;
72895;SDS011;61036;53.224;6.554;2022-07-17T04:39:11;7.83;;;3.63;;
72895;SDS011;61036;53.224;6.554;2022-07-17T04:41:40;9.00;;;3.90;;
72895;SDS011;61036;53.224;6.554;2022-07-17T04:44:05;8.60;;;4.00;;
72895;SDS011;61036;53.224;6.554;2022-07-17T04:46:31;8.00;;;3.90;;
72895;SDS011;61036;53.224;6.554;2022-07-17T04:48:57;9.13;;;3.97;;
72895;SDS011;61036;53.224;6.554;2022-07-17T04:51:23;9.13;;;4.07;;
72895;SDS011;61036;53.224;6.554;2022-07-17T04:53:49;7.37;;;4.37;;
72895;SDS011;61036;53.224;6.554;2022-07-17T04:56:15;7.50;;;3.30;;
72895;SDS011;61036;53.224;6.554;2022-07-17T04:58:41;8.50;;;3.60;;
72895;SDS011;61036;53.224;6.554;2022-07-17T05:01:07;8.10;;;3.63;;
72895;SDS011;61036;53.224;6.554;2022-07-17T05:03:32;8.27;;;3.17;;
72895;SDS011;61036;53.224;6.554;2022-07-17T05:05:58;7.73;;;3.50;;
72895;SDS011;61036;53.224;6.554;2022-07-17T05:08:24;6.07;;;3.30;;
72895;SDS011;61036;53.224;6.554;2022-07-17T05:10:50;6.90;;;2.93;;
72895;SDS011;61036;53.224;6.554;2022-07-17T05:13:16;7.17;;;3.30;;
72895;SDS011;61036;53.224;6.554;2022-07-17T05:15:41;6.33;;;3.37;;
72895;SDS011;61036;53.224;6.554;2022-07-17T05:18:08;8.07;;;3.10;;
72895;SDS011;61036;53.224;6.554;2022-07-17T05:20:34;5.90;;;2.97;;
72895;SDS011;61036;53.224;6.554;2022-07-17T05:23:00;6.83;;;3.33;;
72895;SDS011;61036;53.224;6.554;2022-07-17T05:25:27;5.37;;;2.90;;
72895;SDS011;61036;53.224;6.554;2022-07-17T05:27:53;5.37;;;2.80;;
72895;SDS011;61036;53.224;6.554;2022-07-17T05:30:19;7.73;;;2.90;;
72895;SDS011;61036;53.224;6.554;2022-07-17T05:32:45;6.63;;;2.87;;
72895;SDS011;61036;53.224;6.554;2022-07-17T05:35:11;7.77;;;3.10;;
72895;SDS011;61036;53.224;6.554;2022-07-17T05:37:36;7.37;;;2.93;;
72895;SDS011;61036;53.224;6.554;2022-07-17T05:40:02;8.77;;;2.50;;
72895;SDS011;61036;53.224;6.554;2022-07-17T05:42:28;6.20;;;2.87;;
72895;SDS011;61036;53.224;6.554;2022-07-17T05:44:54;8.37;;;3.00;;
72895;SDS011;61036;53.224;6.554;2022-07-17T05:47:22;9.23;;;2.60;;
72895;SDS011;61036;53.224;6.554;2022-07-17T05:49:48;5.63;;;2.23;;
72895;SDS011;61036;53.224;6.554;2022-07-17T05:52:14;7.53;;;2.53;;
72895;SDS011;61036;53.224;6.554;2022-07-17T05:54:40;6.23;;;2.40;;
72895;SDS011;61036;53.224;6.554;2022-07-17T05:57:05;5.97;;;2.60;;
72895;SDS011;61036;53.224;6.554;2022-07-17T05:59:31;7.27;;;2.43;;
72895;SDS011;61036;53.224;6.554;2022-07-17T06:01:57;5.53;;;2.23;;
72895;SDS011;61036;53.224;6.554;2022-07-17T06:04:22;6.30;;;2.20;;
72895;SDS011;61036;53.224;6.554;2022-07-17T06:06:49;7.73;;;2.60;;
72895;SDS011;61036;53.224;6.554;2022-07-17T06:09:15;4.97;;;2.10;;
72895;SDS011;61036;53.224;6.554;2022-07-17T06:11:41;7.77;;;2.40;;
72895;SDS011;61036;53.224;6.554;2022-07-17T06:14:07;8.77;;;2.30;;
72895;SDS011;61036;53.224;6.554;2022-07-17T06:16:33;9.00;;;2.20;;
72895;SDS011;61036;53.224;6.554;2022-07-17T06:18:59;6.07;;;1.90;;
72895;SDS011;61036;53.224;6.554;2022-07-17T06:21:25;6.37;;;2.00;;
72895;SDS011;61036;53.224;6.554;2022-07-17T06:23:51;7.37;;;2.00;;
72895;SDS011;61036;53.224;6.554;2022-07-17T06:26:17;6.80;;;2.20;;
72895;SDS011;61036;53.224;6.554;2022-07-17T06:28:43;4.77;;;1.70;;
72895;SDS011;61036;53.224;6.554;2022-07-17T06:31:09;5.97;;;2.10;;
72895;SDS011;61036;53.224;6.554;2022-07-17T06:33:36;5.10;;;2.03;;
72895;SDS011;61036;53.224;6.554;2022-07-17T06:36:02;4.97;;;1.83;;
72895;SDS011;61036;53.224;6.554;2022-07-17T06:38:28;4.33;;;1.80;;
72895;SDS011;61036;53.224;6.554;2022-07-17T06:40:54;7.17;;;2.10;;
72895;SDS011;61036;53.224;6.554;2022-07-17T06:43:19;8.07;;;2.17;;
72895;SDS011;61036;53.224;6.554;2022-07-17T06:45:48;6.70;;;2.10;;
72895;SDS011;61036;53.224;6.554;2022-07-17T06:48:19;7.00;;;1.90;;
72895;SDS011;61036;53.224;6.554;2022-07-17T06:50:45;5.50;;;1.70;;
72895;SDS011;61036;53.224;6.554;2022-07-17T06:53:12;5.93;;;1.70;;
72895;SDS011;61036;53.224;6.554;2022-07-17T06:55:38;7.53;;;2.00;;
72895;SDS011;61036;53.224;6.554;2022-07-17T06:58:06;6.17;;;1.50;;
72895;SDS011;61036;53.224;6.554;2022-07-17T07:00:31;6.40;;;1.70;;
72895;SDS011;61036;53.224;6.554;2022-07-17T07:02:57;5.63;;;1.57;;
72895;SDS011;61036;53.224;6.554;2022-07-17T07:05:23;5.23;;;1.50;;
72895;SDS011;61036;53.224;6.554;2022-07-17T07:07:49;4.10;;;1.40;;
72895;SDS011;61036;53.224;6.554;2022-07-17T07:10:15;6.77;;;1.87;;
72895;SDS011;61036;53.224;6.554;2022-07-17T07:12:41;6.37;;;1.73;;
72895;SDS011;61036;53.224;6.554;2022-07-17T07:15:07;4.70;;;1.60;;
72895;SDS011;61036;53.224;6.554;2022-07-17T07:17:34;5.13;;;1.47;;
72895;SDS011;61036;53.224;6.554;2022-07-17T07:20:01;6.67;;;1.40;;
72895;SDS011;61036;53.224;6.554;2022-07-17T07:22:29;4.70;;;1.40;;
72895;SDS011;61036;53.224;6.554;2022-07-17T07:24:55;4.27;;;1.57;;
72895;SDS011;61036;53.224;6.554;2022-07-17T07:27:21;6.57;;;1.50;;
72895;SDS011;61036;53.224;6.554;2022-07-17T07:29:46;6.40;;;1.80;;
72895;SDS011;61036;53.224;6.554;2022-07-17T07:32:12;5.20;;;1.47;;
72895;SDS011;61036;53.224;6.554;2022-07-17T07:34:38;5.90;;;1.70;;
72895;SDS011;61036;53.224;6.554;2022-07-17T07:37:03;5.83;;;1.50;;
72895;SDS011;61036;53.224;6.554;2022-07-17T07:39:29;5.10;;;1.60;;
72895;SDS011;61036;53.224;6.554;2022-07-17T07:41:54;4.23;;;1.50;;
72895;SDS011;61036;53.224;6.554;2022-07-17T07:44:20;4.87;;;1.60;;
72895;SDS011;61036;53.224;6.554;2022-07-17T07:46:45;6.10;;;1.67;;
72895;SDS011;61036;53.224;6.554;2022-07-17T07:49:11;5.33;;;1.70;;
72895;SDS011;61036;53.224;6.554;2022-07-17T07:51:36;7.07;;;1.70;;
72895;SDS011;61036;53.224;6.554;2022-07-17T07:54:03;4.80;;;1.50;;
72895;SDS011;61036;53.224;6.554;2022-07-17T07:56:28;9.23;;;1.80;;
72895;SDS011;61036;53.224;6.554;2022-07-17T07:58:54;7.90;;;2.03;;
72895;SDS011;61036;53.224;6.554;2022-07-17T08:01:20;5.00;;;1.50;;
72895;SDS011;61036;53.224;6.554;2022-07-17T08:03:45;4.83;;;1.23;;
72895;SDS011;61036;53.224;6.554;2022-07-17T08:06:11;7.13;;;1.70;;
72895;SDS011;61036;53.224;6.554;2022-07-17T08:08:36;5.10;;;1.87;;
72895;SDS011;61036;53.224;6.554;2022-07-17T08:11:02;5.93;;;1.70;;
72895;SDS011;61036;53.224;6.554;2022-07-17T08:13:27;5.87;;;1.77;;
72895;SDS011;61036;53.224;6.554;2022-07-17T08:15:53;5.33;;;1.40;;
72895;SDS011;61036;53.224;6.554;2022-07-17T08:18:19;6.30;;;1.60;;
72895;SDS011;61036;53.224;6.554;2022-07-17T08:20:46;5.73;;;1.70;;
72895;SDS011;61036;53.224;6.554;2022-07-17T08:23:12;4.63;;;1.40;;
72895;SDS011;61036;53.224;6.554;2022-07-17T08:25:38;7.07;;;1.77;;
72895;SDS011;61036;53.224;6.554;2022-07-17T08:28:05;7.03;;;1.83;;
72895;SDS011;61036;53.224;6.554;2022-07-17T08:30:31;4.93;;;1.37;;
72895;SDS011;61036;53.224;6.554;2022-07-17T08:33:00;7.20;;;1.40;;
72895;SDS011;61036;53.224;6.554;2022-07-17T08:35:33;5.20;;;1.40;;
72895;SDS011;61036;53.224;6.554;2022-07-17T08:37:59;4.87;;;1.50;;
72895;SDS011;61036;53.224;6.554;2022-07-17T08:40:31;5.77;;;1.60;;
72895;SDS011;61036;53.224;6.554;2022-07-17T08:43:00;3.90;;;1.20;;
72895;SDS011;61036;53.224;6.554;2022-07-17T08:45:27;4.83;;;1.50;;
72895;SDS011;61036;53.224;6.554;2022-07-17T08:47:54;5.57;;;1.40;;
72895;SDS011;61036;53.224;6.554;2022-07-17T08:50:32;4.53;;;1.47;;
72895;SDS011;61036;53.224;6.554;2022-07-17T08:52:59;6.20;;;1.57;;
72895;SDS011;61036;53.224;6.554;2022-07-17T08:55:27;4.97;;;1.70;;
72895;SDS011;61036;53.224;6.554;2022-07-17T08:57:53;6.07;;;2.20;;
72895;SDS011;61036;53.224;6.554;2022-07-17T09:00:20;6.07;;;1.70;;
72895;SDS011;61036;53.224;6.554;2022-07-17T09:03:06;5.07;;;1.67;;
72895;SDS011;61036;53.224;6.554;2022-07-17T09:05:37;8.37;;;2.20;;
72895;SDS011;61036;53.224;6.554;2022-07-17T09:08:05;4.30;;;1.43;;
72895;SDS011;61036;53.224;6.554;2022-07-17T09:10:41;5.87;;;1.70;;
72895;SDS011;61036;53.224;6.554;2022-07-17T09:13:14;6.17;;;1.63;;
72895;SDS011;61036;53.224;6.554;2022-07-17T09:15:49;3.90;;;1.57;;
72895;SDS011;61036;53.224;6.554;2022-07-17T09:18:19;4.83;;;1.50;;
72895;SDS011;61036;53.224;6.554;2022-07-17T09:20:48;4.27;;;1.87;;
72895;SDS011;61036;53.224;6.554;2022-07-17T09:23:17;3.33;;;1.30;;
72895;SDS011;61036;53.224;6.554;2022-07-17T09:25:48;3.80;;;1.50;;
72895;SDS011;61036;53.224;6.554;2022-07-17T09:28:15;4.00;;;1.60;;
72895;SDS011;61036;53.224;6.554;2022-07-17T09:30:49;4.27;;;1.70;;
72895;SDS011;61036;53.224;6.554;2022-07-17T09:33:25;4.43;;;1.60;;
72895;SDS011;61036;53.224;6.554;2022-07-17T09:35:53;5.20;;;1.73;;
72895;SDS011;61036;53.224;6.554;2022-07-17T09:38:24;5.00;;;1.63;;
72895;SDS011;61036;53.224;6.554;2022-07-17T09:41:11;3.60;;;1.53;;
72895;SDS011;61036;53.224;6.554;2022-07-17T09:43:51;4.03;;;1.60;;
72895;SDS011;61036;53.224;6.554;2022-07-17T09:46:23;4.40;;;1.80;;
72895;SDS011;61036;53.224;6.554;2022-07-17T09:48:52;4.27;;;1.50;;
72895;SDS011;61036;53.224;6.554;2022-07-17T09:51:23;8.27;;;2.07;;
72895;SDS011;61036;53.224;6.554;2022-07-17T09:53:52;5.07;;;1.80;;
72895;SDS011;61036;53.224;6.554;2022-07-17T09:56:20;5.30;;;1.60;;
72895;SDS011;61036;53.224;6.554;2022-07-17T09:58:51;5.33;;;1.50;;
72895;SDS011;61036;53.224;6.554;2022-07-17T10:01:19;6.03;;;1.80;;
72895;SDS011;61036;53.224;6.554;2022-07-17T10:03:45;4.80;;;1.70;;
72895;SDS011;61036;53.224;6.554;2022-07-17T10:06:14;6.63;;;1.93;;
72895;SDS011;61036;53.224;6.554;2022-07-17T10:08:40;4.93;;;1.77;;
72895;SDS011;61036;53.224;6.554;2022-07-17T10:11:07;4.23;;;1.53;;
72895;SDS011;61036;53.224;6.554;2022-07-17T10:13:40;3.57;;;1.37;;
72895;SDS011;61036;53.224;6.554;2022-07-17T10:16:07;4.30;;;1.53;;
72895;SDS011;61036;53.224;6.554;2022-07-17T10:18:43;5.77;;;1.77;;
72895;SDS011;61036;53.224;6.554;2022-07-17T10:21:16;3.80;;;1.50;;
72895;SDS011;61036;53.224;6.554;2022-07-17T10:23:48;4.53;;;1.67;;
72895;SDS011;61036;53.224;6.554;2022-07-17T10:29:58;4.20;;;1.50;;
72895;SDS011;61036;53.224;6.554;2022-07-17T10:32:03;3.17;;;1.50;;
72895;SDS011;61036;53.224;6.554;2022-07-17T10:35:15;3.33;;;1.30;;
72895;SDS011;61036;53.224;6.554;2022-07-17T10:37:47;4.57;;;1.60;;
72895;SDS011;61036;53.224;6.554;2022-07-17T10:40:20;4.37;;;1.50;;
72895;SDS011;61036;53.224;6.554;2022-07-17T10:45:24;4.87;;;1.60;;
72895;SDS011;61036;53.224;6.554;2022-07-17T10:47:51;3.93;;;1.50;;
72895;SDS011;61036;53.224;6.554;2022-07-17T10:50:28;6.03;;;1.60;;
72895;SDS011;61036;53.224;6.554;2022-07-17T10:53:02;6.40;;;1.50;;
72895;SDS011;61036;53.224;6.554;2022-07-17T10:55:34;6.57;;;1.67;;
72895;SDS011;61036;53.224;6.554;2022-07-17T10:58:01;4.13;;;1.47;;
72895;SDS011;61036;53.224;6.554;2022-07-17T11:00:28;4.07;;;1.60;;
72895;SDS011;61036;53.224;6.554;2022-07-17T11:02:54;4.87;;;1.77;;
72895;SDS011;61036;53.224;6.554;2022-07-17T11:05:20;3.77;;;1.50;;
72895;SDS011;61036;53.224;6.554;2022-07-17T11:07:53;3.97;;;1.40;;
72895;SDS011;61036;53.224;6.554;2022-07-17T11:10:21;3.67;;;1.53;;
72895;SDS011;61036;53.224;6.554;2022-07-17T11:12:48;3.13;;;1.40;;
72895;SDS011;61036;53.224;6.554;2022-07-17T11:15:16;4.77;;;1.40;;
72895;SDS011;61036;53.224;6.554;2022-07-17T11:17:43;3.40;;;1.57;;
72895;SDS011;61036;53.224;6.554;2022-07-17T11:20:11;2.60;;;1.43;;
72895;SDS011;61036;53.224;6.554;2022-07-17T11:22:37;5.10;;;1.60;;
72895;SDS011;61036;53.224;6.554;2022-07-17T11:25:04;4.67;;;1.63;;
72895;SDS011;61036;53.224;6.554;2022-07-17T11:27:31;3.93;;;1.50;;
72895;SDS011;61036;53.224;6.554;2022-07-17T11:29:59;5.13;;;1.90;;
72895;SDS011;61036;53.224;6.554;2022-07-17T11:32:35;2.93;;;1.43;;
72895;SDS011;61036;53.224;6.554;2022-07-17T11:35:25;3.40;;;1.57;;
72895;SDS011;61036;53.224;6.554;2022-07-17T11:37:52;3.50;;;1.60;;
72895;SDS011;61036;53.224;6.554;2022-07-17T11:40:18;2.63;;;1.37;;
72895;SDS011;61036;53.224;6.554;2022-07-17T11:42:44;4.97;;;1.50;;
72895;SDS011;61036;53.224;6.554;2022-07-17T11:45:10;4.83;;;1.80;;
72895;SDS011;61036;53.224;6.554;2022-07-17T11:47:36;4.13;;;1.80;;
72895;SDS011;61036;53.224;6.554;2022-07-17T11:50:10;3.97;;;1.60;;
72895;SDS011;61036;53.224;6.554;2022-07-17T11:52:47;4.00;;;1.77;;
72895;SDS011;61036;53.224;6.554;2022-07-17T11:55:14;4.47;;;1.93;;
72895;SDS011;61036;53.224;6.554;2022-07-17T11:57:47;6.50;;;1.93;;
72895;SDS011;61036;53.224;6.554;2022-07-17T12:00:15;5.00;;;1.53;;
72895;SDS011;61036;53.224;6.554;2022-07-17T12:02:43;3.63;;;1.50;;
72895;SDS011;61036;53.224;6.554;2022-07-17T12:05:09;5.20;;;1.90;;
72895;SDS011;61036;53.224;6.554;2022-07-17T12:12:40;5.23;;;2.10;;
72895;SDS011;61036;53.224;6.554;2022-07-17T12:18:23;4.83;;;2.13;;
72895;SDS011;61036;53.224;6.554;2022-07-17T12:20:55;4.07;;;2.23;;
72895;SDS011;61036;53.224;6.554;2022-07-17T12:26:02;4.57;;;2.43;;
72895;SDS011;61036;53.224;6.554;2022-07-17T12:28:39;5.93;;;2.23;;
72895;SDS011;61036;53.224;6.554;2022-07-17T12:31:07;4.57;;;2.40;;
72895;SDS011;61036;53.224;6.554;2022-07-17T12:33:33;5.90;;;2.20;;
72895;SDS011;61036;53.224;6.554;2022-07-17T12:35:59;9.13;;;5.77;;
72895;SDS011;61036;53.224;6.554;2022-07-17T12:38:25;7.50;;;2.57;;
72895;SDS011;61036;53.224;6.554;2022-07-17T12:40:51;6.13;;;2.60;;
72895;SDS011;61036;53.224;6.554;2022-07-17T12:43:17;4.87;;;2.47;;
72895;SDS011;61036;53.224;6.554;2022-07-17T12:45:43;6.70;;;2.87;;
72895;SDS011;61036;53.224;6.554;2022-07-17T12:48:08;6.60;;;2.90;;
72895;SDS011;61036;53.224;6.554;2022-07-17T12:50:37;4.90;;;2.50;;
72895;SDS011;61036;53.224;6.554;2022-07-17T12:53:03;5.73;;;2.67;;
72895;SDS011;61036;53.224;6.554;2022-07-17T12:55:29;4.63;;;2.40;;
72895;SDS011;61036;53.224;6.554;2022-07-17T12:57:55;5.37;;;2.60;;
72895;SDS011;61036;53.224;6.554;2022-07-17T13:00:21;5.87;;;2.77;;
72895;SDS011;61036;53.224;6.554;2022-07-17T13:02:47;5.57;;;2.93;;
72895;SDS011;61036;53.224;6.554;2022-07-17T13:05:13;6.43;;;3.27;;
72895;SDS011;61036;53.224;6.554;2022-07-17T13:07:38;5.67;;;2.97;;
72895;SDS011;61036;53.224;6.554;2022-07-17T13:10:05;5.63;;;3.00;;
72895;SDS011;61036;53.224;6.554;2022-07-17T13:12:31;5.77;;;2.57;;
72895;SDS011;61036;53.224;6.554;2022-07-17T13:14:57;5.80;;;2.80;;
72895;SDS011;61036;53.224;6.554;2022-07-17T13:17:23;7.23;;;3.30;;
72895;SDS011;61036;53.224;6.554;2022-07-17T13:19:49;6.77;;;3.30;;
72895;SDS011;61036;53.224;6.554;2022-07-17T13:22:15;5.53;;;2.90;;
72895;SDS011;61036;53.224;6.554;2022-07-17T13:24:40;5.47;;;2.60;;
72895;SDS011;61036;53.224;6.554;2022-07-17T13:27:06;4.93;;;2.80;;
72895;SDS011;61036;53.224;6.554;2022-07-17T13:29:32;6.93;;;2.90;;
72895;SDS011;61036;53.224;6.554;2022-07-17T13:31:58;5.13;;;2.90;;
72895;SDS011;61036;53.224;6.554;2022-07-17T13:34:24;5.63;;;3.00;;
72895;SDS011;61036;53.224;6.554;2022-07-17T13:36:51;6.87;;;3.20;;
72895;SDS011;61036;53.224;6.554;2022-07-17T13:39:17;5.63;;;3.33;;
72895;SDS011;61036;53.224;6.554;2022-07-17T13:41:43;4.73;;;2.47;;
72895;SDS011;61036;53.224;6.554;2022-07-17T13:44:09;5.30;;;3.17;;
72895;SDS011;61036;53.224;6.554;2022-07-17T13:46:35;5.40;;;2.67;;
72895;SDS011;61036;53.224;6.554;2022-07-17T13:49:02;5.43;;;2.80;;
72895;SDS011;61036;53.224;6.554;2022-07-17T13:51:29;5.20;;;2.80;;
72895;SDS011;61036;53.224;6.554;2022-07-17T13:53:56;5.93;;;3.03;;
72895;SDS011;61036;53.224;6.554;2022-07-17T13:56:25;5.97;;;3.10;;
72895;SDS011;61036;53.224;6.554;2022-07-17T13:58:51;5.20;;;2.80;;
72895;SDS011;61036;53.224;6.554;2022-07-17T14:01:17;4.90;;;2.77;;
72895;SDS011;61036;53.224;6.554;2022-07-17T14:03:43;6.33;;;3.07;;
72895;SDS011;61036;53.224;6.554;2022-07-17T14:06:08;7.30;;;3.37;;
72895;SDS011;61036;53.224;6.554;2022-07-17T14:08:34;6.03;;;3.10;;
72895;SDS011;61036;53.224;6.554;2022-07-17T14:11:00;6.57;;;3.57;;
72895;SDS011;61036;53.224;6.554;2022-07-17T14:13:27;5.47;;;2.97;;
72895;SDS011;61036;53.224;6.554;2022-07-17T14:15:55;6.07;;;3.30;;
72895;SDS011;61036;53.224;6.554;2022-07-17T14:18:22;6.90;;;3.67;;
72895;SDS011;61036;53.224;6.554;2022-07-17T14:20:47;6.40;;;3.30;;
72895;SDS011;61036;53.224;6.554;2022-07-17T14:23:13;6.50;;;3.33;;
72895;SDS011;61036;53.224;6.554;2022-07-17T14:25:41;5.83;;;3.47;;
72895;SDS011;61036;53.224;6.554;2022-07-17T14:28:07;6.57;;;3.30;;
72895;SDS011;61036;53.224;6.554;2022-07-17T14:30:36;5.80;;;3.40;;
72895;SDS011;61036;53.224;6.554;2022-07-17T14:33:01;6.13;;;2.87;;
72895;SDS011;61036;53.224;6.554;2022-07-17T14:35:28;6.43;;;3.23;;
72895;SDS011;61036;53.224;6.554;2022-07-17T14:37:54;5.10;;;3.00;;
72895;SDS011;61036;53.224;6.554;2022-07-17T14:40:20;7.03;;;3.10;;
72895;SDS011;61036;53.224;6.554;2022-07-17T14:42:46;6.33;;;3.50;;
72895;SDS011;61036;53.224;6.554;2022-07-17T14:45:12;6.60;;;3.60;;
72895;SDS011;61036;53.224;6.554;2022-07-17T14:47:38;6.83;;;3.50;;
72895;SDS011;61036;53.224;6.554;2022-07-17T14:50:05;5.43;;;3.00;;
72895;SDS011;61036;53.224;6.554;2022-07-17T14:52:31;7.20;;;3.27;;
72895;SDS011;61036;53.224;6.554;2022-07-17T14:54:56;6.00;;;3.10;;
72895;SDS011;61036;53.224;6.554;2022-07-17T14:57:25;5.43;;;3.30;;
72895;SDS011;61036;53.224;6.554;2022-07-17T14:59:51;5.97;;;3.30;;
72895;SDS011;61036;53.224;6.554;2022-07-17T15:02:17;6.00;;;3.13;;
72895;SDS011;61036;53.224;6.554;2022-07-17T15:04:44;6.03;;;3.40;;
72895;SDS011;61036;53.224;6.554;2022-07-17T15:07:10;5.47;;;3.40;;